Map

Track Data

SID SEASON NUMBER BASIN SUBBASIN NAME ISO_TIME NATURE LAT LON WMO_WIND WMO_PRES WMO_AGENCY TRACK_TYPE DIST2LAND LANDFALL IFLAG USA_AGENCY USA_ATCF_ID USA_LAT USA_LON USA_RECORD USA_STATUS USA_WIND USA_PRES USA_SSHS USA_R34_NE USA_R34_SE USA_R34_SW USA_R34_NW USA_R50_NE USA_R50_SE USA_R50_SW USA_R50_NW USA_R64_NE USA_R64_SE USA_R64_SW USA_R64_NW USA_POCI USA_ROCI USA_RMW USA_EYE TOKYO_LAT TOKYO_LON TOKYO_GRADE TOKYO_WIND TOKYO_PRES TOKYO_R50_DIR TOKYO_R50_LONG TOKYO_R50_SHORT TOKYO_R30_DIR TOKYO_R30_LONG TOKYO_R30_SHORT TOKYO_LAND CMA_LAT CMA_LON CMA_CAT CMA_WIND CMA_PRES HKO_LAT HKO_LON HKO_CAT HKO_WIND HKO_PRES NEWDELHI_LAT NEWDELHI_LON NEWDELHI_GRADE NEWDELHI_WIND NEWDELHI_PRES NEWDELHI_CI NEWDELHI_DP NEWDELHI_POCI REUNION_LAT REUNION_LON REUNION_TYPE REUNION_WIND REUNION_PRES REUNION_TNUM REUNION_CI REUNION_RMW REUNION_R34_NE REUNION_R34_SE REUNION_R34_SW REUNION_R34_NW REUNION_R50_NE REUNION_R50_SE REUNION_R50_SW REUNION_R50_NW REUNION_R64_NE REUNION_R64_SE REUNION_R64_SW REUNION_R64_NW BOM_LAT BOM_LON BOM_TYPE BOM_WIND BOM_PRES BOM_TNUM BOM_CI BOM_RMW BOM_R34_NE BOM_R34_SE BOM_R34_SW BOM_R34_NW BOM_R50_NE BOM_R50_SE BOM_R50_SW BOM_R50_NW BOM_R64_NE BOM_R64_SE BOM_R64_SW BOM_R64_NW BOM_ROCI BOM_POCI BOM_EYE BOM_POS_METHOD BOM_PRES_METHOD NADI_LAT NADI_LON NADI_CAT NADI_WIND NADI_PRES WELLINGTON_LAT WELLINGTON_LON WELLINGTON_WIND WELLINGTON_PRES DS824_LAT DS824_LON DS824_STAGE DS824_WIND DS824_PRES TD9636_LAT TD9636_LON TD9636_STAGE TD9636_WIND TD9636_PRES TD9635_LAT TD9635_LON TD9635_WIND TD9635_PRES TD9635_ROCI NEUMANN_LAT NEUMANN_LON NEUMANN_CLASS NEUMANN_WIND NEUMANN_PRES MLC_LAT MLC_LON MLC_CLASS MLC_WIND MLC_PRES USA_GUST BOM_GUST BOM_GUST_PER REUNION_GUST REUNION_GUST_PER USA_SEAHGT USA_SEARAD_NE USA_SEARAD_SE USA_SEARAD_SW USA_SEARAD_NW STORM_SPEED STORM_DIR
1977300N13092 1977 105 NI BB NOT_NAMED 1977-10-27 00:00:00 TS 13.0000 92.2000 main 392 392 O________OO___ jtwc_io IO041977 13.0000 92.2000 -1 13.0000 92.2000 TC 13.0000 92.2000 1 6 270
1977300N13092 1977 105 NI BB NOT_NAMED 1977-10-27 03:00:00 TS 13.0002 91.8970 main 413 413 P________PP___ IO041977 13.0001 91.8900 -1 13.0001 91.8900 TC 13.0003 91.9109 1 6 270
1977300N13092 1977 105 NI BB NOT_NAMED 1977-10-27 06:00:00 TS 13.0001 91.6092 main 435 435 O________OP___ jtwc_io IO041977 13.0000 91.6000 -1 13.0000 91.6000 TC 13.0004 91.6275 1 5 270
1977300N13092 1977 105 NI BB NOT_NAMED 1977-10-27 09:00:00 TS 13.0001 91.3468 main 458 458 P________PP___ IO041977 13.0000 91.3425 -1 13.0000 91.3425 TC 13.0003 91.3553 1 5 270
1977300N13092 1977 105 NI BB NOT_NAMED 1977-10-27 12:00:00 TS 13.0000 91.1000 main 473 473 O________OO___ jtwc_io IO041977 13.0000 91.1000 -1 13.0000 91.1000 TC 13.0000 91.1000 1 5 270
1977300N13092 1977 105 NI BB NOT_NAMED 1977-10-27 15:00:00 TS 12.9999 90.8544 main 488 488 P________PP___ IO041977 13.0000 90.8500 -1 13.0000 90.8500 TC 12.9997 90.8631 1 5 270
1977300N13092 1977 105 NI BB NOT_NAMED 1977-10-27 18:00:00 TS 12.9999 90.6100 main 512 512 O________OP___ jtwc_io IO041977 13.0000 90.6000 -1 13.0000 90.6000 TC 12.9996 90.6300 1 5 270
1977300N13092 1977 105 NI BB NOT_NAMED 1977-10-27 21:00:00 TS 12.9998 90.3706 main 529 529 P________PP___ IO041977 12.9999 90.3650 -1 12.9999 90.3650 TC 12.9997 90.3819 1 5 270
1977300N13092 1977 105 NI BB NOT_NAMED 1977-10-28 00:00:00 TS 13.0000 90.1000 main 554 554 O________OO___ jtwc_io IO041977 13.0000 90.1000 -1 13.0000 90.1000 TC 13.0000 90.1000 1 6 270
1977300N13092 1977 105 NI BB NOT_NAMED 1977-10-28 03:00:00 TS 12.9987 89.7578 main 580 580 P________PP___ IO041977 13.0000 89.7725 -1 13.0000 89.7725 TC 12.9963 89.7284 1 7 270
1977300N13092 1977 105 NI BB NOT_NAMED 1977-10-28 06:00:00 TS 12.9977 89.3758 main 616 616 O________OP___ jtwc_io IO041977 13.0000 89.4000 -1 13.0000 89.4000 TC 12.9930 89.3275 1 8 270
1977300N13092 1977 105 NI BB NOT_NAMED 1977-10-28 09:00:00 TS 12.9978 88.9593 main 652 652 P________PP___ IO041977 13.0001 88.9700 -1 13.0001 88.9700 TC 12.9932 88.9378 1 8 270
1977300N13092 1977 105 NI BB NOT_NAMED 1977-10-28 12:00:00 TS 13.0000 88.6000 main 690 690 O________OO___ jtwc_io IO041977 13.0000 88.6000 -1 13.0000 88.6000 TC 13.0000 88.6000 2 5 270
1977300N13092 1977 105 NI BB NOT_NAMED 1977-10-28 15:00:00 TS 12.9966 88.4106 main 709 709 P________PP___ IO041977 12.9924 88.4200 -1 12.9924 88.4200 TC 13.0052 88.3918 2 3 271
1977300N13092 1977 105 NI BB NOT_NAMED 1977-10-28 18:00:00 TS 13.0065 88.2783 main 718 718 O________OP___ jtwc_io IO041977 13.0000 88.3000 -1 13.0000 88.3000 TC 13.0194 88.2348 2 3 278
1977300N13092 1977 105 NI BB NOT_NAMED 1977-10-28 21:00:00 TS 13.0396 88.1101 main 731 710 P________PP___ IO041977 13.0350 88.1225 -1 13.0350 88.1225 TC 13.0489 88.0855 2 4 284
1977300N13092 1977 105 NI BB NOT_NAMED 1977-10-29 00:00:00 TS 13.1000 87.9000 main 710 681 O________OO___ jtwc_io IO041977 13.1000 87.9000 -1 13.1000 87.9000 TC 13.1000 87.9000 2 5 287
1977300N13092 1977 105 NI BB NOT_NAMED 1977-10-29 03:00:00 TS 13.1824 87.6237 main 681 651 P________PP___ IO041977 13.1925 87.6225 -1 13.1925 87.6225 TC 13.1622 87.6261 2 6 287
1977300N13092 1977 105 NI BB NOT_NAMED 1977-10-29 06:00:00 TS 13.2825 87.3033 main 651 619 O________OP___ jtwc_io IO041977 13.3000 87.3000 -1 13.3000 87.3000 TC 13.2475 87.3098 2 7 287
1977300N13092 1977 105 NI BB NOT_NAMED 1977-10-29 09:00:00 TS 13.3763 86.9594 main 619 577 P________PP___ IO041977 13.3850 86.9574 -1 13.3850 86.9574 TC 13.3590 86.9635 2 7 288
1977300N13092 1977 105 NI BB NOT_NAMED 1977-10-29 12:00:00 TS 13.5000 86.6000 main 577 538 O________OO___ jtwc_io IO041977 13.5000 86.6000 -1 13.5000 86.6000 TC 13.5000 86.6000 2 7 295
1977300N13092 1977 105 NI BB NOT_NAMED 1977-10-29 15:00:00 TS 13.6870 86.2596 main 538 490 P________PP___ IO041977 13.6849 86.2575 -1 13.6849 86.2575 TC 13.6912 86.2639 2 8 301
1977300N13092 1977 105 NI BB NOT_NAMED 1977-10-29 18:00:00 TS 13.9023 85.9034 main 490 442 O________OP___ jtwc_io IO041977 13.9000 85.9000 XX 35 -5 13.9000 85.9000 TC 35 13.9069 85.9103 2 8 301
1977300N13092 1977 105 NI BB NOT_NAMED 1977-10-29 21:00:00 TS 14.1163 85.5238 main 442 395 P________PP___ IO041977 14.1149 85.5225 XX 35 -5 14.1149 85.5225 TC 35 14.1192 85.5264 2 9 297
1977300N13092 1977 105 NI BB NOT_NAMED 1977-10-30 00:00:00 TS 14.3000 85.1000 main 395 348 O________OO___ jtwc_io IO041977 14.3000 85.1000 XX 35 -5 14.3000 85.1000 TC 35 14.3000 85.1000 2 9 289
1977300N13092 1977 105 NI BB NOT_NAMED 1977-10-30 03:00:00 TS 14.4214 84.6155 main 348 304 P________PP___ IO041977 14.4224 84.6224 XX 35 -5 14.4224 84.6224 TC 35 14.4194 84.6017 2 10 282
1977300N13092 1977 105 NI BB NOT_NAMED 1977-10-30 06:00:00 TS 14.5010 84.0883 main 304 263 O________OP___ jtwc_io IO041977 14.5000 84.1000 XX 35 -5 14.5000 84.1000 TC 35 14.5029 84.0648 2 11 278
1977300N13092 1977 105 NI BB NOT_NAMED 1977-10-30 09:00:00 TS 14.5633 83.5351 main 258 233 P________PP___ IO041977 14.5650 83.5425 XX 35 -5 14.5650 83.5425 TC 35 14.5600 83.5205 2 11 275
1977300N13092 1977 105 NI BB NOT_NAMED 1977-10-30 12:00:00 TS 14.6000 83.0000 main 233 213 O________OO___ jtwc_io IO041977 14.6000 83.0000 XX 35 -5 14.6000 83.0000 TC 35 14.6000 83.0000 2 10 273
1977300N13092 1977 105 NI BB NOT_NAMED 1977-10-30 15:00:00 TS 14.6087 82.5403 main 208 178 P________PP___ IO041977 14.5999 82.5274 XX 35 -5 14.5999 82.5274 TC 35 14.6264 82.5661 2 9 271
1977300N13092 1977 105 NI BB NOT_NAMED 1977-10-30 18:00:00 TS 14.6138 82.1190 main 178 150 O________OP___ jtwc_io IO041977 14.6000 82.1000 XX 35 -5 14.6000 82.1000 TC 35 14.6414 82.1569 2 8 273
1977300N13092 1977 105 NI BB NOT_NAMED 1977-10-30 21:00:00 TS 14.6435 81.7197 main 150 118 P________PP___ IO041977 14.6348 81.7075 XX 35 -5 14.6348 81.7075 TC 35 14.6607 81.7442 2 8 276
1977300N13092 1977 105 NI BB NOT_NAMED 1977-10-31 00:00:00 TS 14.7000 81.3000 main 118 78 O________OO___ jtwc_io IO041977 14.7000 81.3000 XX 35 -5 14.7000 81.3000 TC 35 14.7000 81.3000 2 9 280
1977300N13092 1977 105 NI BB NOT_NAMED 1977-10-31 03:00:00 TS 14.7889 80.8261 main 68 24 P________PP___ IO041977 14.7924 80.8300 XX 37 -5 14.7924 80.8300 TC 37 14.7819 80.8185 2 10 281
1977300N13092 1977 105 NI BB NOT_NAMED 1977-10-31 06:00:00 TS 14.8947 80.2992 main 24 0 O________OP___ jtwc_io IO041977 14.9000 80.3000 XX 40 -5 14.9000 80.3000 TC 40 14.8840 80.2975 2 11 281
1977300N13092 1977 105 NI BB NOT_NAMED 1977-10-31 09:00:00 TS 15.0029 79.7342 main 0 0 P________PP___ IO041977 15.0073 79.7375 XX 40 -5 15.0073 79.7375 TC 40 14.9941 79.7277 2 12 280
1977300N13092 1977 105 NI BB NOT_NAMED 1977-10-31 12:00:00 TS 15.1000 79.1000 main 0 0 O________OO___ jtwc_io IO041977 15.1000 79.1000 XX 40 -5 15.1000 79.1000 TC 40 15.1000 79.1000 1 13 276
1977300N13092 1977 105 NI BB NOT_NAMED 1977-10-31 15:00:00 TS 15.1499 78.3837 main 0 0 P________PP___ IO041977 15.1500 78.3723 XX 37 -5 15.1500 78.3723 TC 37 15.1498 78.4064 1 14 274
1977300N13092 1977 105 NI AS NOT_NAMED 1977-10-31 18:00:00 TS 15.1992 77.6194 main 0 0 O________OP___ jtwc_io IO041977 15.2000 77.6000 XX 35 -5 15.2000 77.6000 TC 35 15.1976 77.6583 1 15 275
1977300N13092 1977 105 NI AS NOT_NAMED 1977-10-31 21:00:00 TS 15.2703 76.8602 main 0 0 P________PP___ IO041977 15.2698 76.8498 XX -5 15.2698 76.8498 TC 15.2715 76.8811 1 15 278
1977300N13092 1977 105 NI AS NOT_NAMED 1977-11-01 00:00:00 TS 15.4000 76.1000 main 0 0 O________OO___ jtwc_io IO041977 15.4000 76.1000 -1 15.4000 76.1000 TC 15.4000 76.1000 1 15 284
1977300N13092 1977 105 NI AS NOT_NAMED 1977-11-01 03:00:00 TS 15.6270 75.3423 main 0 0 P________PP___ IO041977 15.6197 75.3500 -1 15.6197 75.3500 TC 15.6417 75.3270 1 15 289
1977300N13092 1977 105 NI AS NOT_NAMED 1977-11-01 06:00:00 TS 15.9116 74.5856 main 0 0 O________OP___ jtwc_io IO041977 15.9000 74.6000 -1 15.9000 74.6000 TC 15.9348 74.5569 1 16 292
1977300N13092 1977 105 NI AS NOT_NAMED 1977-11-01 09:00:00 TS 16.2218 73.8261 main 0 0 P________PP___ IO041977 16.2149 73.8352 -1 16.2149 73.8352 TC 16.2355 73.8081 1 15 292
1977300N13092 1977 105 NI AS NOT_NAMED 1977-11-01 12:00:00 TS 16.5000 73.1000 main 21 21 O________OO___ jtwc_io IO041977 16.5000 73.1000 -1 16.5000 73.1000 TC 16.5000 73.1000 1 14 289
1977300N13092 1977 105 NI AS NOT_NAMED 1977-11-01 15:00:00 TS 16.6781 72.4359 main 95 95 P________PP___ IO041977 16.6798 72.4197 -1 16.6798 72.4197 TC 16.6748 72.4681 1 13 284
1977300N13092 1977 105 NI AS NOT_NAMED 1977-11-01 18:00:00 TS 16.8027 71.8255 main 159 159 O________OP___ jtwc_io IO041977 16.8000 71.8000 -1 16.8000 71.8000 TC 16.8080 71.8764 1 11 282
1977300N13092 1977 105 NI AS NOT_NAMED 1977-11-01 21:00:00 TS 16.9088 71.2654 main 206 206 P________PP___ IO041977 16.9071 71.2498 -1 16.9071 71.2498 TC 16.9123 71.2965 1 11 280
1977300N13092 1977 105 NI AS NOT_NAMED 1977-11-02 00:00:00 TS 17.0000 70.7000 main 263 263 O________OO___ jtwc_io IO041977 17.0000 70.7000 -1 17.0000 70.7000 TC 17.0000 70.7000 1 12 280
1977300N13092 1977 105 NI AS NOT_NAMED 1977-11-02 03:00:00 TS 17.1082 70.0545 main 321 321 P________PP___ IO041977 17.1074 70.0725 -1 17.1074 70.0725 TC 17.1100 70.0184 1 13 279
1977300N13092 1977 105 NI AS NOT_NAMED 1977-11-02 06:00:00 TS 17.2010 69.3735 main 387 387 O________OP___ jtwc_io IO041977 17.2000 69.4000 -1 17.2000 69.4000 TC 17.2030 69.3204 1 13 277
1977300N13092 1977 105 NI AS NOT_NAMED 1977-11-02 09:00:00 TS 17.2665 68.6641 main 439 439 P________PP___ IO041977 17.2651 68.6775 -1 17.2651 68.6775 TC 17.2694 68.6372 1 13 274
1977300N13092 1977 105 NI AS NOT_NAMED 1977-11-02 12:00:00 TS 17.3000 68.0000 main 480 480 O________OO___ jtwc_io IO041977 17.3000 68.0000 -1 17.3000 68.0000 TC 17.3000 68.0000 1 11 272
1977300N13092 1977 105 NI AS NOT_NAMED 1977-11-02 15:00:00 TS 17.3135 67.4768 main 510 510 P________PP___ IO041977 17.3221 67.4701 -1 17.3221 67.4701 TC 17.2962 67.4902 1 9 269
1977300N13092 1977 105 NI AS NOT_NAMED 1977-11-02 18:00:00 TS 17.2858 67.0075 main 541 541 O________OP___ jtwc_io IO041977 17.3000 67.0000 -1 17.3000 67.0000 TC 17.2573 67.0225 1 9 263
1977300N13092 1977 105 NI AS NOT_NAMED 1977-11-02 21:00:00 TS 17.2063 66.5395 main 584 584 P________PP___ IO041977 17.2145 66.5375 -1 17.2145 66.5375 TC 17.1899 66.5436 1 10 259
1977300N13092 1977 105 NI AS NOT_NAMED 1977-11-03 00:00:00 TS 17.1000 66.0000 main 628 628 O________OO___ jtwc_io IO041977 17.1000 66.0000 -1 17.1000 66.0000 TC 17.1000 66.0000 1 12 260
1977300N13092 1977 105 NI AS NOT_NAMED 1977-11-03 03:00:00 TS 17.0029 65.2894 main 689 689 P________PP___ IO041977 17.0076 65.2876 -1 17.0076 65.2876 TC 16.9935 65.2930 1 14 262
1977300N13092 1977 105 NI AS NOT_NAMED 1977-11-03 06:00:00 TS 16.8888 64.5073 main 742 680 O________OP___ jtwc_io IO041977 16.9000 64.5000 -1 16.9000 64.5000 TC 16.8664 64.5218 1 15 260
1977300N13092 1977 105 NI AS NOT_NAMED 1977-11-03 09:00:00 TS 16.7437 63.7265 main 675 612 P________PP___ IO041977 16.7500 63.7199 -1 16.7500 63.7199 TC 16.7309 63.7398 1 15 259
1977300N13092 1977 105 NI AS NOT_NAMED 1977-11-03 12:00:00 TS 16.6000 63.0000 main 612 570 O________OO___ jtwc_io IO041977 16.6000 63.0000 -1 16.6000 63.0000 TC 16.6000 63.0000 1 13 259
1977300N13092 1977 105 NI AS NOT_NAMED 1977-11-03 15:00:00 TS 16.4955 62.4293 main 561 522 P________PP___ IO041977 16.4920 62.4277 -1 16.4920 62.4277 TC 16.5025 62.4324 1 11 259
1977300N13092 1977 105 NI AS NOT_NAMED 1977-11-03 18:00:00 TS 16.4038 61.9012 main 522 486 O________OP___ jtwc_io IO041977 16.4000 61.9000 -1 16.4000 61.9000 TC 16.4114 61.9037 1 11 260
1977300N13092 1977 105 NI AS NOT_NAMED 1977-11-03 21:00:00 TS 16.3096 61.3411 main 478 438 P________PP___ IO041977 16.3071 61.3377 -1 16.3071 61.3377 TC 16.3147 61.3481 1 12 260
1977300N13092 1977 105 NI AS NOT_NAMED 1977-11-04 00:00:00 TS 16.2000 60.7000 main 438 399 O________OO___ jtwc_io IO041977 16.2000 60.7000 -1 16.2000 60.7000 TC 16.2000 60.7000 1 14 260
1977300N13092 1977 105 NI AS NOT_NAMED 1977-11-04 03:00:00 TS 16.0620 59.9489 main 393 362 P________PP___ IO041977 16.0645 59.9676 -1 16.0645 59.9676 TC 16.0570 59.9115 1 16 259
1977300N13092 1977 105 NI AS NOT_NAMED 1977-11-04 06:00:00 TS 15.8961 59.0684 main 362 305 O________OP___ jtwc_io IO041977 15.9000 59.1000 -1 15.9000 59.1000 TC 15.8883 59.0052 1 18 259
1977300N13092 1977 105 NI AS NOT_NAMED 1977-11-04 09:00:00 TS 15.7059 58.0668 main 305 270 P________PP___ IO041977 15.7088 58.0896 -1 15.7088 58.0896 TC 15.7003 58.0212 1 20 259
1977300N13092 1977 105 NI AS NOT_NAMED 1977-11-04 12:00:00 TS 15.5000 57.0000 main 262 O________OO___ jtwc_io IO041977 15.5000 57.0000 -1 15.5000 57.0000 TC 15.5000 57.0000 1 21 259

About IBTrACS Database

This database is a web-friendly format of International Best Track Archive for Climate Stewardship (IBTrACS), a global best track data archive curated by NOAA dating back to 1842.

Updated: 2021-10-08